首页
METAR-TAF:

METAR-TAF

机场 :

Geilenkirchen, 德国

纬度: 50-57-39N, 经度: 006-2-33E, 海拔: 90米

当前天气观测

该预报发布于55分钟前的20:50 UTC
风速7节,风向西南
温度 6°C
湿度 75%
气压 1013 hPa
能见度10公里或以上
散云层高于3800英尺
多云层高于10000英尺

METAR: ETNG 292050Z 23007KT 9999 SCT038 BKN100 06/02 Q1013

时间: 22:45 (21:45 UTC)

预报

该预报发布于1小时和45分钟前的20:00 UTC
预报有效从29日的 21点(UTC)到 30日的 12点(UTC)
风速10节,风向西南
能见度10公里或以上
散云层高于3000英尺
多云层高于25000英尺

TAF: ETNG 292000Z 2921/3012 22010KT 9999 SCT030 BKN250

超过4000个机场的气象观测和天气预报(METAR&TAF报告)。

可查询的气象台以黄色和红色小点在地图上表示。

将鼠标移到小点上方,可查看气象台名称。

然后点击查看天气观测和预报。

如需切换地图:点击带黑十字的绿色按钮放大地图;点击带横线的绿色按钮缩小地图;或者点击绿色箭头查看邻近地区的地图。


METAR-TAF: